PWSweather.com
Personal Weather Stations
Station Observations
MUNLOCHY
Munlochy Mill, MunlochyGB IV8 8NL

Munlochy MillMunlochyGB IV8 8NL

Lat: 57.548611, Lon: -4.2625966

Elevation: 62.336

Station Type: Oregon Scientific WMR200

http://www.millbankhouse.co.uk

Latest ConditionsUpdated 5:50:01 AM GMT Saturday, Jan 18, 2020
Currently Today's Max Today's Min Today's Average
Temperature 38.1°F3.4°C 38.7°F3.7°C 37.0°F2.8°C 37.9°F3.3°C
Dew Point 35.7°F2.1°C 35.9°F2.2°C 34.3°F1.3°C 35.1°F1.7°C
Winds 4.6 mph WSW7.4 kmh WSW 6.9 mph -11.1 kmh - - 5.2 mph 8.4 kmh
Wind Gusts 5.8 mph9.3 kmh 12.7 mph20.4 kmh - -
Humidity 91% 92% 86% 90%
Pressure 30.01 in1016.3 mb 30.01 in1016.3 mb 29.84 in1010.5 mb -
Precipitation - 0.06 in1.5 mm - -
Hour Temp Dew Point Humidity Winds Wind Gusts Pressure Precip Precip Rate Daily Precip Total
05:50 AM 38.1°F3.4°C 35.7°F2.1°C 91% 4.6 mph WSW7.4 kmh WSW 5.8 mph9.3 kmh 30.01 in1016.3 mb - 0.00 in0.0 mm 0.06 in1.5 mm
05:45 AM 38.1°F3.4°C 35.7°F2.1°C 91% 4.6 mph SW7.4 kmh SW 10.4 mph16.7 kmh 30.01 in1016.3 mb - 0.00 in0.0 mm 0.06 in1.5 mm
05:40 AM 38.1°F3.4°C 35.7°F2.1°C 91% 4.6 mph WSW7.4 kmh WSW 5.8 mph9.3 kmh 30.00 in1015.9 mb - 0.00 in0.0 mm 0.06 in1.5 mm
05:35 AM 37.9°F3.3°C 35.5°F1.9°C 91% 4.6 mph W7.4 kmh W 9.2 mph14.8 kmh 30.00 in1015.9 mb - 0.00 in0.0 mm 0.06 in1.5 mm
05:30 AM 37.9°F3.3°C 35.5°F1.9°C 91% 4.6 mph WSW7.4 kmh WSW 6.9 mph11.1 kmh 30.00 in1015.9 mb - 0.00 in0.0 mm 0.06 in1.5 mm
05:25 AM 37.6°F3.1°C 35.2°F1.8°C 91% 4.6 mph W7.4 kmh W 9.2 mph14.8 kmh 30.00 in1015.9 mb - 0.00 in0.0 mm 0.06 in1.5 mm
05:20 AM 37.6°F3.1°C 35.2°F1.8°C 91% 4.6 mph W7.4 kmh W 5.8 mph9.3 kmh 29.99 in1015.6 mb - 0.00 in0.0 mm 0.06 in1.5 mm
05:15 AM 37.6°F3.1°C 35.2°F1.8°C 91% 4.6 mph W7.4 kmh W 6.9 mph11.1 kmh 29.99 in1015.6 mb - 0.00 in0.0 mm 0.06 in1.5 mm
05:10 AM 37.6°F3.1°C 35.2°F1.8°C 91% 4.6 mph W7.4 kmh W 5.8 mph9.3 kmh 29.99 in1015.6 mb - 0.00 in0.0 mm 0.06 in1.5 mm
05:00 AM 37.8°F3.2°C 35.1°F1.7°C 90% 5.8 mph W9.3 kmh W 4.6 mph7.4 kmh 29.98 in1015.2 mb - 0.00 in0.0 mm 0.06 in1.5 mm
04:55 AM 37.8°F3.2°C 35.1°F1.7°C 90% 5.8 mph W9.3 kmh W 5.8 mph9.3 kmh 29.98 in1015.2 mb - 0.00 in0.0 mm 0.06 in1.5 mm
04:50 AM 37.9°F3.3°C 35.3°F1.8°C 90% 5.8 mph WSW9.3 kmh WSW 9.2 mph14.8 kmh 29.98 in1015.2 mb - 0.00 in0.0 mm 0.06 in1.5 mm
04:45 AM 38.1°F3.4°C 35.4°F1.9°C 90% 5.8 mph WSW9.3 kmh WSW 9.2 mph14.8 kmh 29.98 in1015.2 mb - 0.00 in0.0 mm 0.06 in1.5 mm
04:40 AM 38.1°F3.4°C 35.7°F2.1°C 91% 5.8 mph W9.3 kmh W 10.4 mph16.7 kmh 29.97 in1014.9 mb - 0.00 in0.0 mm 0.06 in1.5 mm
04:35 AM 38.1°F3.4°C 35.4°F1.9°C 90% 4.6 mph WSW7.4 kmh WSW 8.1 mph13.0 kmh 29.97 in1014.9 mb - 0.00 in0.0 mm 0.06 in1.5 mm
04:30 AM 37.9°F3.3°C 35.3°F1.8°C 90% 4.6 mph WSW7.4 kmh WSW 6.9 mph11.1 kmh 29.97 in1014.9 mb - 0.01 in0.3 mm 0.06 in1.5 mm
04:25 AM 37.8°F3.2°C 35.1°F1.7°C 90% 5.8 mph WSW9.3 kmh WSW 6.9 mph11.1 kmh 29.96 in1014.6 mb - 0.01 in0.3 mm 0.06 in1.5 mm
04:20 AM 37.9°F3.3°C 35.0°F1.7°C 89% 5.8 mph WSW9.3 kmh WSW 5.8 mph9.3 kmh 29.96 in1014.6 mb - 0.01 in0.3 mm 0.06 in1.5 mm
04:15 AM 37.9°F3.3°C 35.0°F1.7°C 89% 5.8 mph WSW9.3 kmh WSW 5.8 mph9.3 kmh 29.96 in1014.6 mb - 0.01 in0.3 mm 0.06 in1.5 mm
04:10 AM 37.9°F3.3°C 35.0°F1.7°C 89% 5.8 mph W9.3 kmh W 8.1 mph13.0 kmh 29.96 in1014.6 mb - 0.01 in0.3 mm 0.06 in1.5 mm
04:00 AM 37.8°F3.2°C 34.5°F1.4°C 88% 5.8 mph W9.3 kmh W 8.1 mph13.0 kmh 29.95 in1014.2 mb - 0.01 in0.3 mm 0.06 in1.5 mm
03:55 AM 37.8°F3.2°C 34.8°F1.6°C 89% 5.8 mph W9.3 kmh W 8.1 mph13.0 kmh 29.95 in1014.2 mb - 0.01 in0.3 mm 0.06 in1.5 mm
03:50 AM 37.8°F3.2°C 34.8°F1.6°C 89% 5.8 mph W9.3 kmh W 9.2 mph14.8 kmh 29.95 in1014.2 mb - 0.01 in0.3 mm 0.06 in1.5 mm
03:45 AM 37.8°F3.2°C 35.1°F1.7°C 90% 5.8 mph W9.3 kmh W 10.4 mph16.7 kmh 29.95 in1014.2 mb - 0.01 in0.3 mm 0.06 in1.5 mm
03:40 AM 37.9°F3.3°C 35.3°F1.8°C 90% 5.8 mph W9.3 kmh W 9.2 mph14.8 kmh 29.95 in1014.2 mb - 0.01 in0.3 mm 0.06 in1.5 mm
03:35 AM 38.1°F3.4°C 35.4°F1.9°C 90% 6.9 mph W11.1 kmh W 11.5 mph18.5 kmh 29.95 in1014.2 mb - 0.01 in0.3 mm 0.06 in1.5 mm
03:30 AM 38.5°F3.6°C 35.8°F2.1°C 90% 6.9 mph WSW11.1 kmh WSW 5.8 mph9.3 kmh 29.95 in1014.2 mb - 0.00 in0.0 mm 0.05 in1.3 mm
03:25 AM 38.5°F3.6°C 35.5°F1.9°C 89% 5.8 mph W9.3 kmh W 12.7 mph20.4 kmh 29.94 in1013.9 mb - 0.00 in0.0 mm 0.05 in1.3 mm
03:20 AM 38.1°F3.4°C 34.9°F1.6°C 88% 5.8 mph WSW9.3 kmh WSW 5.8 mph9.3 kmh 29.94 in1013.9 mb - 0.00 in0.0 mm 0.05 in1.3 mm
03:15 AM 37.9°F3.3°C 34.4°F1.3°C 87% 4.6 mph W7.4 kmh W 11.5 mph18.5 kmh 29.94 in1013.9 mb - 0.00 in0.0 mm 0.05 in1.3 mm
03:10 AM 37.9°F3.3°C 34.4°F1.3°C 87% 4.6 mph W7.4 kmh W 6.9 mph11.1 kmh 29.94 in1013.9 mb - 0.00 in0.0 mm 0.05 in1.3 mm
03:00 AM 37.9°F3.3°C 34.4°F1.3°C 87% 4.6 mph W7.4 kmh W 8.1 mph13.0 kmh 29.94 in1013.9 mb - 0.00 in0.0 mm 0.05 in1.3 mm
02:55 AM 37.9°F3.3°C 34.4°F1.3°C 87% 4.6 mph W7.4 kmh W 6.9 mph11.1 kmh 29.93 in1013.5 mb - 0.00 in0.0 mm 0.05 in1.3 mm
02:50 AM 38.1°F3.4°C 34.6°F1.4°C 87% 4.6 mph WSW7.4 kmh WSW 4.6 mph7.4 kmh 29.93 in1013.5 mb - 0.00 in0.0 mm 0.05 in1.3 mm
02:45 AM 38.1°F3.4°C 34.3°F1.3°C 86% 4.6 mph SW7.4 kmh SW 5.8 mph9.3 kmh 29.93 in1013.5 mb - 0.00 in0.0 mm 0.05 in1.3 mm
02:40 AM 38.5°F3.6°C 34.7°F1.5°C 86% 4.6 mph WSW7.4 kmh WSW 6.9 mph11.1 kmh 29.93 in1013.5 mb - 0.00 in0.0 mm 0.05 in1.3 mm
02:35 AM 38.7°F3.7°C 34.8°F1.6°C 86% 4.6 mph WSW7.4 kmh WSW 4.6 mph7.4 kmh 29.93 in1013.5 mb - 0.00 in0.0 mm 0.05 in1.3 mm
02:30 AM 38.5°F3.6°C 34.9°F1.6°C 87% 4.6 mph WSW7.4 kmh WSW 8.1 mph13.0 kmh 29.93 in1013.5 mb - 0.00 in0.0 mm 0.05 in1.3 mm
02:25 AM 38.1°F3.4°C 34.9°F1.6°C 88% 4.6 mph WSW7.4 kmh WSW 5.8 mph9.3 kmh 29.91 in1012.9 mb - 0.00 in0.0 mm 0.05 in1.3 mm
02:20 AM 37.6°F3.1°C 34.6°F1.4°C 89% 4.6 mph W7.4 kmh W 9.2 mph14.8 kmh 29.91 in1012.9 mb - 0.00 in0.0 mm 0.05 in1.3 mm
02:15 AM 37.0°F2.8°C 34.4°F1.3°C 90% 3.5 mph WSW5.6 kmh WSW 5.8 mph9.3 kmh 29.91 in1012.9 mb - 0.00 in0.0 mm 0.05 in1.3 mm
02:10 AM 37.0°F2.8°C 34.7°F1.5°C 91% 3.5 mph WSW5.6 kmh WSW 4.6 mph7.4 kmh 29.91 in1012.9 mb - 0.00 in0.0 mm 0.05 in1.3 mm
02:00 AM 37.2°F2.9°C 34.8°F1.6°C 91% 4.6 mph W7.4 kmh W 5.8 mph9.3 kmh 29.91 in1012.9 mb - 0.02 in0.5 mm 0.05 in1.3 mm
01:55 AM 37.6°F3.1°C 34.9°F1.6°C 90% 5.8 mph W9.3 kmh W 6.9 mph11.1 kmh 29.90 in1012.5 mb - 0.02 in0.5 mm 0.05 in1.3 mm
01:50 AM 37.7°F3.2°C 35.0°F1.7°C 90% 5.8 mph W9.3 kmh W 5.8 mph9.3 kmh 29.90 in1012.5 mb - 0.02 in0.5 mm 0.05 in1.3 mm
01:45 AM 37.6°F3.1°C 35.2°F1.8°C 91% 4.6 mph W7.4 kmh W 8.1 mph13.0 kmh 29.90 in1012.5 mb - 0.02 in0.5 mm 0.05 in1.3 mm
01:40 AM 37.7°F3.2°C 35.3°F1.8°C 91% 4.6 mph WSW7.4 kmh WSW 8.1 mph13.0 kmh 29.90 in1012.5 mb - 0.02 in0.5 mm 0.05 in1.3 mm
01:35 AM 37.8°F3.2°C 35.4°F1.9°C 91% 4.6 mph W7.4 kmh W 6.9 mph11.1 kmh 29.90 in1012.5 mb - 0.02 in0.5 mm 0.05 in1.3 mm
01:30 AM 37.9°F3.3°C 35.2°F1.8°C 90% 4.6 mph WSW7.4 kmh WSW 4.6 mph7.4 kmh 29.90 in1012.5 mb - 0.02 in0.5 mm 0.05 in1.3 mm
01:25 AM 37.9°F3.3°C 35.3°F1.8°C 90% 5.8 mph W9.3 kmh W 4.6 mph7.4 kmh 29.88 in1011.9 mb - 0.03 in0.8 mm 0.05 in1.3 mm
01:20 AM 37.9°F3.3°C 35.3°F1.8°C 90% 5.8 mph W9.3 kmh W 8.1 mph13.0 kmh 29.88 in1011.9 mb - 0.03 in0.8 mm 0.05 in1.3 mm
01:15 AM 38.1°F3.4°C 35.4°F1.9°C 90% 6.9 mph W11.1 kmh W 6.9 mph11.1 kmh 29.88 in1011.9 mb - 0.03 in0.8 mm 0.05 in1.3 mm
01:10 AM 38.1°F3.4°C 35.4°F1.9°C 90% 6.9 mph WSW11.1 kmh WSW 6.9 mph11.1 kmh 29.88 in1011.9 mb - 0.03 in0.8 mm 0.05 in1.3 mm
01:00 AM 38.6°F3.7°C 35.9°F2.2°C 90% 6.9 mph W11.1 kmh W 10.4 mph16.7 kmh 29.88 in1011.9 mb - 0.01 in0.3 mm 0.03 in0.8 mm
12:55 AM 38.4°F3.6°C 35.7°F2.1°C 90% 5.8 mph W9.3 kmh W 12.7 mph20.4 kmh 29.86 in1011.2 mb - 0.01 in0.3 mm 0.03 in0.8 mm
12:50 AM 38.1°F3.4°C 35.4°F1.9°C 90% 5.8 mph W9.3 kmh W 9.2 mph14.8 kmh 29.86 in1011.2 mb - 0.01 in0.3 mm 0.03 in0.8 mm
12:45 AM 38.1°F3.4°C 35.2°F1.8°C 89% 6.9 mph W11.1 kmh W 9.2 mph14.8 kmh 29.86 in1011.2 mb - 0.01 in0.3 mm 0.03 in0.8 mm
12:40 AM 38.1°F3.4°C 35.2°F1.8°C 89% 6.9 mph WSW11.1 kmh WSW 5.8 mph9.3 kmh 29.87 in1011.5 mb - 0.01 in0.3 mm 0.03 in0.8 mm
12:35 AM 38.1°F3.4°C 35.2°F1.8°C 89% 4.6 mph WSW7.4 kmh WSW 6.9 mph11.1 kmh 29.87 in1011.5 mb - 0.01 in0.3 mm 0.03 in0.8 mm
12:30 AM 37.8°F3.2°C 35.4°F1.9°C 91% 4.6 mph WSW7.4 kmh WSW 12.7 mph20.4 kmh 29.87 in1011.5 mb - 0.01 in0.3 mm 0.03 in0.8 mm
12:25 AM 37.7°F3.2°C 35.3°F1.8°C 91% 4.6 mph WNW7.4 kmh WNW 6.9 mph11.1 kmh 29.86 in1011.2 mb - 0.00 in0.0 mm 0.02 in0.5 mm
12:20 AM 37.6°F3.1°C 35.2°F1.8°C 91% 4.6 mph WNW7.4 kmh WNW 8.1 mph13.0 kmh 29.86 in1011.2 mb - 0.00 in0.0 mm 0.02 in0.5 mm
12:15 AM 37.5°F3.1°C 35.1°F1.7°C 91% 4.6 mph WSW7.4 kmh WSW 6.9 mph11.1 kmh 29.86 in1011.2 mb - 0.00 in0.0 mm 0.02 in0.5 mm
12:10 AM 37.2°F2.9°C 35.1°F1.7°C 92% 4.6 mph W7.4 kmh W 5.8 mph9.3 kmh 29.84 in1010.5 mb - 0.00 in0.0 mm 0.02 in0.5 mm
12:00 AM 37.2°F2.9°C 35.1°F1.7°C 92% 4.6 mph W7.4 kmh W 5.8 mph9.3 kmh 29.84 in1010.5 mb - 0.00 in0.0 mm 0.02 in0.5 mm